EDT,Max TemperatureF,Mean TemperatureF,Min TemperatureF,Max Dew PointF,MeanDew PointF,Min DewpointF,Max Humidity, Mean Humidity, Min Humidity, Max Sea Level PressureIn, Mean Sea Level PressureIn, Min Sea Level PressureIn, Max VisibilityMiles, Mean VisibilityMiles, Min VisibilityMiles, Max Wind SpeedMPH, Mean Wind SpeedMPH, Max Gust SpeedMPH,PrecipitationIn, CloudCover, Events, WindDirDegrees
2012-10-1,71,65,59,61,59,55,90,77,63,29.95,29.92,29.89,10,10,9,9,3,16,T,6,Rain,104
2012-10-2,84,77,69,76,73,64,94,87,79,29.97,29.91,29.87,10,10,2,16,9,21,0.20,4,Rain,172
2012-10-3,88,81,74,74,73,70,94,75,55,30.14,30.06,29.97,10,10,7,16,8,21,T,4,,214
2012-10-4,85,77,69,73,66,56,94,67,40,30.18,30.13,30.09,10,10,10,20,6,25,0.00,2,,241
2012-10-5,80,72,63,66,59,53,93,68,42,30.14,30.09,30.02,10,10,9,9,4,13,0.00,0,,306
2012-10-6,84,73,61,62,59,52,93,68,43,30.00,29.93,29.85,10,10,7,21,10,28,0.00,2,,238
2012-10-7,66,60,53,57,53,47,100,78,56,30.13,30.04,29.99,10,7,1,22,13,28,0.49,8,Rain,12
2012-10-8,59,57,55,56,52,44,93,80,66,30.24,30.16,30.10,10,7,1,25,14,31,0.92,8,Rain,24
2012-10-9,63,61,59,61,58,57,100,95,90,30.10,30.07,30.04,10,4,1,18,10,25,0.29,8,Rain,6
2012-10-10,70,64,57,59,55,50,97,75,53,30.04,30.00,29.91,10,7,0,15,5,20,0.00,6,,258
2012-10-11,62,56,49,51,40,37,80,61,42,30.30,30.22,30.07,10,10,10,21,8,30,0.00,0,,6
2012-10-12,68,57,45,50,45,31,93,65,36,30.38,30.22,30.17,10,10,10,26,11,33,0.00,0,,358
2012-10-13,63,56,49,47,42,34,83,63,43,30.48,30.41,30.36,10,10,10,24,10,30,0.00,0,,52
2012-10-14,79,64,49,59,53,46,96,68,40,30.34,30.20,30.04,10,10,10,18,7,23,0.00,0,,201
2012-10-15,76,69,61,61,59,55,93,75,57,30.01,29.83,29.69,10,8,1,20,9,25,0.68,5,Rain,227
2012-10-16,65,57,48,53,46,42,86,65,44,29.93,29.88,29.79,10,10,10,23,8,31,0.00,0,,347
2012-10-17,68,58,48,52,49,46,93,69,45,30.03,29.98,29.93,10,10,10,12,4,21,0.00,0,,168
2012-10-18,76,64,51,65,57,49,96,77,58,29.97,29.91,29.82,10,10,10,13,6,21,T,3,Rain,140
2012-10-19,78,68,58,66,65,53,100,79,58,29.81,29.75,29.68,10,8,0,16,8,21,0.00,5,Fog,192
2012-10-20,74,63,51,53,46,42,83,59,35,29.90,29.79,29.75,10,10,10,10,4,15,0.00,0,,216
2012-10-21,65,58,51,49,44,39,72,56,40,30.14,30.06,29.92,10,10,10,18,7,24,0.00,0,,347
2012-10-22,67,57,46,50,45,42,93,68,42,30.22,30.17,30.13,10,10,10,10,3,14,0.00,0,,336
2012-10-23,77,63,48,54,48,44,93,63,33,30.18,30.14,30.09,10,10,10,12,6,15,0.00,0,,207
2012-10-24,80,68,55,59,54,51,90,65,39,30.17,30.12,30.06,10,10,10,15,6,17,0.00,0,,231
2012-10-25,72,64,56,64,61,56,93,83,73,30.19,30.15,30.12,10,9,6,13,7,20,0.00,4,,59
2012-10-26,71,68,64,64,63,62,93,89,84,30.12,30.06,29.96,10,10,6,16,9,21,T,6,Rain,39
2012-10-27,67,65,62,63,61,59,93,87,81,29.94,29.79,29.67,10,8,3,33,21,41,0.15,7,Rain,38
2012-10-28,63,61,58,59,57,55,90,87,84,29.68,29.51,29.37,10,4,1,43,30,52,1.89,8,Rain,24
2012-10-29,59,51,43,56,49,39,96,90,83,29.35,29.17,29.02,10,5,2,37,21,49,3.87,8,Rain,307
2012-10-30,46,42,38,40,38,37,89,80,71,29.39,29.26,29.11,10,10,7,25,21,36,0.49,8,Rain,217
2012-10-31,57,49,40,38,37,36,66,58,50,29.70,29.65,29.60,10,10,2,17,9,23,0.00,5,,246